createdAt,value
2023-03-05T00:00:26.455Z,3.06
2023-03-05T00:01:33.610Z,3.06
2023-03-05T00:02:35.841Z,3.05
2023-03-05T00:03:38.779Z,3.07
2023-03-05T00:04:40.987Z,3.05
2023-03-05T00:05:43.144Z,3.06
2023-03-05T00:06:45.703Z,3.06
2023-03-05T00:07:49.110Z,3.05
2023-03-05T00:08:53.633Z,3.04
2023-03-05T00:09:55.810Z,3.05
2023-03-05T00:10:58.481Z,3.05
2023-03-05T00:12:00.938Z,3.05
2023-03-05T00:13:03.210Z,3.03
2023-03-05T00:14:06.554Z,3.02
2023-03-05T00:15:09.423Z,3.02
2023-03-05T00:16:14.659Z,3.01
2023-03-05T00:17:16.854Z,3.00
2023-03-05T00:18:19.721Z,3.01
2023-03-05T00:19:22.290Z,3.00
2023-03-05T00:20:24.517Z,3.01
2023-03-05T00:21:33.007Z,2.99
2023-03-05T00:22:38.692Z,2.98
2023-03-05T00:23:40.829Z,2.98
2023-03-05T00:24:43.786Z,2.96
2023-03-05T00:25:47.122Z,2.96
2023-03-05T00:26:49.885Z,2.95
2023-03-05T00:27:53.073Z,2.95
2023-03-05T00:28:56.800Z,2.96
2023-03-05T00:29:59.061Z,2.94
2023-03-05T00:31:01.613Z,2.94
2023-03-05T00:32:03.903Z,2.92
2023-03-05T00:33:07.335Z,2.90
2023-03-05T00:34:12.981Z,2.91
2023-03-05T00:35:15.201Z,2.91
2023-03-05T00:36:17.483Z,2.90
2023-03-05T00:37:19.961Z,2.89
2023-03-05T00:38:22.161Z,2.89
2023-03-05T00:39:24.310Z,2.90
2023-03-05T00:40:26.484Z,2.88
2023-03-05T00:41:28.748Z,2.89
2023-03-05T00:42:31.131Z,2.89
2023-03-05T00:43:33.339Z,2.89
2023-03-05T00:44:35.814Z,2.88
2023-03-05T00:45:38.011Z,2.87
2023-03-05T00:46:40.710Z,2.87
2023-03-05T00:47:43.216Z,2.87
2023-03-05T00:48:45.430Z,2.86
2023-03-05T00:49:47.729Z,2.87
2023-03-05T00:50:49.946Z,2.86
2023-03-05T00:51:52.133Z,2.86
2023-03-05T00:52:54.565Z,2.87
2023-03-05T00:53:56.873Z,2.87
2023-03-05T00:54:59.611Z,2.86
2023-03-05T00:56:02.095Z,2.86
2023-03-05T00:57:05.858Z,2.85
2023-03-05T00:58:08.041Z,2.86
2023-03-05T00:59:10.333Z,2.86
2023-03-05T01:00:15.174Z,2.85
2023-03-05T01:01:17.506Z,2.85
2023-03-05T01:02:19.752Z,2.85
2023-03-05T01:03:22.213Z,2.84
2023-03-05T01:04:24.664Z,2.83
2023-03-05T01:05:26.854Z,2.83
2023-03-05T01:06:29.591Z,2.83
2023-03-05T01:07:31.746Z,2.80
2023-03-05T01:08:34.803Z,2.80
2023-03-05T01:09:37.007Z,2.78
2023-03-05T01:10:39.243Z,2.78
2023-03-05T01:11:41.492Z,2.79
2023-03-05T01:12:44.482Z,2.79
2023-03-05T01:13:47.088Z,2.77
2023-03-05T01:14:49.639Z,2.76
2023-03-05T01:15:51.981Z,2.75
2023-03-05T01:16:54.766Z,2.75
2023-03-05T01:17:56.920Z,2.74
2023-03-05T01:18:59.280Z,2.75
2023-03-05T01:20:01.476Z,2.75
2023-03-05T01:21:04.051Z,2.76
2023-03-05T01:22:06.293Z,2.72
2023-03-05T01:23:09.294Z,2.72
2023-03-05T01:24:12.538Z,2.71
2023-03-05T01:25:16.866Z,2.71
2023-03-05T01:26:19.094Z,2.70
2023-03-05T01:27:21.277Z,2.69
2023-03-05T01:28:23.704Z,2.68
2023-03-05T01:29:25.929Z,2.68
2023-03-05T01:30:28.580Z,2.68
2023-03-05T01:31:30.965Z,2.70
2023-03-05T01:32:34.847Z,2.67
2023-03-05T01:33:39.166Z,2.68
2023-03-05T01:34:42.073Z,2.67
2023-03-05T01:35:49.723Z,2.66
2023-03-05T01:36:51.941Z,2.67
2023-03-05T01:37:54.486Z,2.64
2023-03-05T01:38:56.915Z,2.64
2023-03-05T01:39:59.112Z,2.63
2023-03-05T01:41:02.062Z,2.63
2023-03-05T01:42:04.762Z,2.63
2023-03-05T01:43:23.345Z,2.62
2023-03-05T01:44:29.252Z,2.60
2023-03-05T01:45:32.816Z,2.60
2023-03-05T01:46:38.873Z,2.57
2023-03-05T01:47:41.162Z,2.57
2023-03-05T01:48:47.839Z,2.56
2023-03-05T01:49:50.250Z,2.54
2023-03-05T01:50:52.588Z,2.55
2023-03-05T01:52:09.274Z,2.54
2023-03-05T01:53:11.702Z,2.53
2023-03-05T01:54:17.423Z,2.53
2023-03-05T01:55:23.557Z,2.54
2023-03-05T01:56:27.873Z,2.52
2023-03-05T01:57:37.676Z,2.51
2023-03-05T01:58:40.237Z,2.50
2023-03-05T01:59:45.987Z,2.48
2023-03-05T02:00:51.157Z,2.48
2023-03-05T02:01:57.162Z,2.48
2023-03-05T02:03:03.900Z,2.47
2023-03-05T02:04:09.067Z,2.44
2023-03-05T02:05:16.275Z,2.46
2023-03-05T02:06:18.768Z,2.44
2023-03-05T02:07:21.600Z,2.42
2023-03-05T02:08:24.336Z,2.41
2023-03-05T02:09:28.946Z,2.41
2023-03-05T02:10:37.963Z,2.43
2023-03-05T02:11:40.800Z,2.40
2023-03-05T02:12:43.379Z,2.41
2023-03-05T02:13:46.013Z,2.39
2023-03-05T02:14:51.223Z,2.39
2023-03-05T02:15:57.171Z,2.37
2023-03-05T02:17:03.449Z,2.36
2023-03-05T02:18:07.604Z,2.36
2023-03-05T02:19:11.924Z,2.34
2023-03-05T02:20:27.582Z,2.32
2023-03-05T02:21:38.427Z,2.32
2023-03-05T02:22:40.658Z,2.31
2023-03-05T02:23:42.803Z,2.32
2023-03-05T02:24:45.076Z,2.31
2023-03-05T02:25:47.352Z,2.29
2023-03-05T02:26:49.793Z,2.29
2023-03-05T02:28:37.665Z,2.29
2023-03-05T02:29:44.846Z,2.27
2023-03-05T02:30:47.017Z,2.27
2023-03-05T02:31:49.271Z,2.25
2023-03-05T02:32:51.578Z,2.24
2023-03-05T02:33:56.363Z,2.24
2023-03-05T02:34:59.915Z,2.22
2023-03-05T02:36:03.302Z,2.23
2023-03-05T02:37:09.171Z,2.23
2023-03-05T02:38:15.438Z,2.23
2023-03-05T02:39:17.987Z,2.21
2023-03-05T02:40:20.295Z,2.21
2023-03-05T02:41:23.143Z,2.20
2023-03-05T02:42:25.483Z,2.21
2023-03-05T02:43:28.692Z,2.22
2023-03-05T02:44:30.893Z,2.21
2023-03-05T02:45:33.452Z,2.20
2023-03-05T02:46:35.854Z,2.20
2023-03-05T02:47:38.364Z,2.20
2023-03-05T02:48:41.697Z,2.21
2023-03-05T02:49:46.986Z,2.19
2023-03-05T02:50:49.560Z,2.18
2023-03-05T02:51:52.610Z,2.17
2023-03-05T02:52:54.855Z,2.18
2023-03-05T02:53:57.724Z,2.18
2023-03-05T02:55:02.249Z,2.17
2023-03-05T02:56:06.120Z,2.15
2023-03-05T02:57:10.326Z,2.15
2023-03-05T02:58:12.511Z,2.13
2023-03-05T02:59:14.823Z,2.10
2023-03-05T03:00:17.610Z,2.12
2023-03-05T03:01:20.040Z,2.09
2023-03-05T03:02:22.853Z,2.08
2023-03-05T03:03:25.556Z,2.07
2023-03-05T03:04:27.919Z,2.06
2023-03-05T03:05:30.217Z,2.06
2023-03-05T03:06:32.405Z,2.06
2023-03-05T03:07:36.638Z,2.05
2023-03-05T03:08:38.841Z,2.05
2023-03-05T03:09:43.003Z,2.04
2023-03-05T03:10:45.245Z,2.04
2023-03-05T03:11:47.785Z,2.05
2023-03-05T03:12:49.964Z,2.04
2023-03-05T03:13:52.144Z,2.04
2023-03-05T03:14:54.290Z,2.03
2023-03-05T03:16:11.131Z,2.05
2023-03-05T03:17:16.393Z,2.03
2023-03-05T03:18:18.807Z,2.02
2023-03-05T03:19:21.050Z,2.01
2023-03-05T03:20:23.512Z,2.02
2023-03-05T03:21:27.107Z,2.01
2023-03-05T03:22:29.845Z,1.99
2023-03-05T03:23:32.058Z,2.01
2023-03-05T03:24:34.962Z,2.00
2023-03-05T03:25:37.239Z,2.01
2023-03-05T03:26:39.480Z,2.01
2023-03-05T03:27:41.686Z,2.00
2023-03-05T03:28:44.430Z,1.99
2023-03-05T03:29:46.555Z,1.99
2023-03-05T03:30:48.934Z,2.00
2023-03-05T03:31:51.428Z,1.98
2023-03-05T03:32:53.674Z,1.99
2023-03-05T03:33:56.148Z,1.97
2023-03-05T03:34:58.670Z,1.97
2023-03-05T03:36:01.076Z,1.97
2023-03-05T03:37:03.314Z,1.97
2023-03-05T03:38:05.717Z,1.96
2023-03-05T03:39:10.046Z,1.94
2023-03-05T03:40:12.515Z,1.96
2023-03-05T03:41:14.656Z,1.93
2023-03-05T03:42:18.823Z,1.93
2023-03-05T03:43:20.993Z,1.92
2023-03-05T03:44:23.383Z,1.92
2023-03-05T03:45:25.669Z,1.91
2023-03-05T03:46:27.925Z,1.91
2023-03-05T03:47:31.104Z,1.91
2023-03-05T03:48:33.643Z,1.91
2023-03-05T03:49:35.899Z,1.92
2023-03-05T03:50:42.554Z,1.91
2023-03-05T03:51:44.856Z,1.89
2023-03-05T03:52:47.438Z,1.89
2023-03-05T03:53:49.678Z,1.88
2023-03-05T03:54:53.191Z,1.87
2023-03-05T03:55:58.727Z,1.87
2023-03-05T03:57:00.887Z,1.87
2023-03-05T03:58:03.554Z,1.87
2023-03-05T03:59:05.990Z,1.88
2023-03-05T04:00:09.196Z,1.87
2023-03-05T04:01:14.290Z,1.86
2023-03-05T04:02:16.553Z,1.86
2023-03-05T04:03:18.764Z,1.86
2023-03-05T04:04:20.988Z,1.86
2023-03-05T04:05:23.251Z,1.85
2023-03-05T04:06:25.740Z,1.85
2023-03-05T04:07:27.879Z,1.85
2023-03-05T04:08:30.222Z,1.84
2023-03-05T04:09:32.452Z,1.83
2023-03-05T04:10:34.609Z,1.83
2023-03-05T04:11:37.735Z,1.82
2023-03-05T04:12:43.074Z,1.81
2023-03-05T04:13:48.898Z,1.80
2023-03-05T04:14:51.299Z,1.78
2023-03-05T04:15:54.401Z,1.79
2023-03-05T04:16:56.856Z,1.79
2023-03-05T04:17:59.443Z,1.78
2023-03-05T04:19:01.624Z,1.78
2023-03-05T04:20:05.979Z,1.78
2023-03-05T04:21:08.373Z,1.78
2023-03-05T04:22:12.744Z,1.76
2023-03-05T04:23:15.305Z,1.76
2023-03-05T04:24:17.558Z,1.76
2023-03-05T04:25:19.796Z,1.75
2023-03-05T04:26:25.203Z,1.76
2023-03-05T04:27:27.373Z,1.75
2023-03-05T04:28:29.584Z,1.75
2023-03-05T04:29:32.196Z,1.76
2023-03-05T04:30:34.431Z,1.74
2023-03-05T04:31:36.797Z,1.76
2023-03-05T04:32:39.123Z,1.74
2023-03-05T04:33:41.363Z,1.75
2023-03-05T04:34:43.495Z,1.74
2023-03-05T04:35:45.836Z,1.74
2023-03-05T04:36:49.039Z,1.72
2023-03-05T04:37:51.325Z,1.71
2023-03-05T04:38:53.455Z,1.71
2023-03-05T04:39:55.624Z,1.71
2023-03-05T04:40:59.213Z,1.71
2023-03-05T04:42:01.397Z,1.70
2023-03-05T04:43:04.343Z,1.70
2023-03-05T04:44:07.559Z,1.71
2023-03-05T04:45:11.220Z,1.70
2023-03-05T04:46:13.595Z,1.71
2023-03-05T04:47:17.206Z,1.71
2023-03-05T04:48:19.446Z,1.70
2023-03-05T04:49:21.777Z,1.70
2023-03-05T04:50:24.443Z,1.70
2023-03-05T04:51:26.624Z,1.69
2023-03-05T04:52:29.147Z,1.68
2023-03-05T04:53:31.293Z,1.69
2023-03-05T04:54:33.433Z,1.70
2023-03-05T04:55:35.678Z,1.69
2023-03-05T04:56:37.818Z,1.69
2023-03-05T04:57:40.137Z,1.68
2023-03-05T04:58:42.401Z,1.68
2023-03-05T04:59:44.575Z,1.67
2023-03-05T05:00:47.397Z,1.68
2023-03-05T05:01:49.583Z,1.68
2023-03-05T05:02:52.473Z,1.68
2023-03-05T05:03:54.683Z,1.67
2023-03-05T05:04:56.956Z,1.67
2023-03-05T05:06:00.327Z,1.65
2023-03-05T05:07:02.582Z,1.66
2023-03-05T05:08:04.937Z,1.67
2023-03-05T05:09:07.072Z,1.65
2023-03-05T05:10:11.021Z,1.65
2023-03-05T05:11:14.886Z,1.64
2023-03-05T05:12:17.217Z,1.64
2023-03-05T05:13:19.714Z,1.63
2023-03-05T05:14:22.189Z,1.64
2023-03-05T05:15:24.513Z,1.63
2023-03-05T05:16:26.744Z,1.64
2023-03-05T05:17:33.177Z,1.64
2023-03-05T05:18:35.522Z,1.62
2023-03-05T05:19:37.799Z,1.62
2023-03-05T05:20:40.175Z,1.63
2023-03-05T05:21:42.641Z,1.63
2023-03-05T05:22:44.823Z,1.62
2023-03-05T05:23:47.055Z,1.63
2023-03-05T05:24:49.401Z,1.62
2023-03-05T05:25:59.168Z,1.62
2023-03-05T05:27:01.390Z,1.60
2023-03-05T05:28:03.850Z,1.59
2023-03-05T05:29:06.138Z,1.60
2023-03-05T05:30:10.228Z,1.60
2023-03-05T05:31:14.985Z,1.60
2023-03-05T05:32:18.331Z,1.58
2023-03-05T05:33:21.285Z,1.57
2023-03-05T05:34:25.461Z,1.57
2023-03-05T05:35:27.688Z,1.56
2023-03-05T05:36:30.008Z,1.57
2023-03-05T05:37:33.414Z,1.55
2023-03-05T05:38:35.741Z,1.53
2023-03-05T05:39:38.661Z,1.53
2023-03-05T05:40:41.405Z,1.53
2023-03-05T05:41:43.777Z,1.54
2023-03-05T05:42:46.174Z,1.52
2023-03-05T05:43:48.468Z,1.51
2023-03-05T05:44:50.881Z,1.52
2023-03-05T05:45:53.234Z,1.50
2023-03-05T05:46:55.477Z,1.51
2023-03-05T05:47:57.828Z,1.51
2023-03-05T05:49:00.076Z,1.50
2023-03-05T05:50:02.380Z,1.51
2023-03-05T05:51:12.301Z,1.51
2023-03-05T05:52:14.434Z,1.51
2023-03-05T05:53:16.623Z,1.50
2023-03-05T05:54:18.795Z,1.50
2023-03-05T05:55:21.630Z,1.51
2023-03-05T05:56:23.873Z,1.52
2023-03-05T05:57:26.068Z,1.50
2023-03-05T05:58:28.222Z,1.50
2023-03-05T05:59:30.421Z,1.51
2023-03-05T06:00:32.628Z,1.50
2023-03-05T06:01:35.395Z,1.51
2023-03-05T06:02:39.411Z,1.48
2023-03-05T06:03:43.523Z,1.50
2023-03-05T06:04:46.674Z,1.49
2023-03-05T06:05:48.967Z,1.50
2023-03-05T06:06:51.152Z,1.51
2023-03-05T06:07:53.410Z,1.51
2023-03-05T06:08:56.243Z,1.52
2023-03-05T06:09:58.537Z,1.51
2023-03-05T06:11:00.666Z,1.52
2023-03-05T06:12:03.534Z,1.53
2023-03-05T06:13:05.771Z,1.51
2023-03-05T06:14:08.953Z,1.53
2023-03-05T06:15:11.130Z,1.53
2023-03-05T06:16:16.693Z,1.54
2023-03-05T06:17:29.786Z,1.54
2023-03-05T06:18:34.219Z,1.55
2023-03-05T06:19:36.368Z,1.54
2023-03-05T06:20:38.590Z,1.55
2023-03-05T06:21:40.782Z,1.54
2023-03-05T06:22:43.035Z,1.56
2023-03-05T06:23:46.876Z,1.57
2023-03-05T06:24:49.121Z,1.57
2023-03-05T06:25:51.893Z,1.57
2023-03-05T06:26:56.556Z,1.56
2023-03-05T06:27:58.819Z,1.56
2023-03-05T06:29:01.095Z,1.58
2023-03-05T06:30:05.687Z,1.58
2023-03-05T06:31:11.362Z,1.59
2023-03-05T06:32:13.537Z,1.59
2023-03-05T06:33:15.925Z,1.61
2023-03-05T06:34:18.101Z,1.61
2023-03-05T06:35:20.365Z,1.60
2023-03-05T06:36:24.318Z,1.62
2023-03-05T06:37:26.512Z,1.63
2023-03-05T06:38:28.679Z,1.64
2023-03-05T06:39:32.068Z,1.66
2023-03-05T06:40:34.838Z,1.66
2023-03-05T06:41:36.965Z,1.67
2023-03-05T06:42:39.116Z,1.67
2023-03-05T06:43:44.408Z,1.68
2023-03-05T06:44:48.256Z,1.69
2023-03-05T06:46:02.331Z,1.69
2023-03-05T06:47:05.615Z,1.70
2023-03-05T06:48:07.772Z,1.71
2023-03-05T06:49:10.637Z,1.72
2023-03-05T06:50:13.242Z,1.73
2023-03-05T06:51:16.923Z,1.74
2023-03-05T06:52:19.075Z,1.75
2023-03-05T06:53:21.537Z,1.75
2023-03-05T06:54:23.799Z,1.76
2023-03-05T06:55:25.974Z,1.77
2023-03-05T06:56:28.531Z,1.80
2023-03-05T06:57:30.654Z,1.79
2023-03-05T06:58:32.931Z,1.80
2023-03-05T06:59:35.102Z,1.81
2023-03-05T07:00:37.234Z,1.81
2023-03-05T07:01:39.588Z,1.83
2023-03-05T07:02:41.938Z,1.85
2023-03-05T07:03:45.013Z,1.84
2023-03-05T07:04:47.232Z,1.86
2023-03-05T07:05:49.659Z,1.87
2023-03-05T07:06:51.874Z,1.88
2023-03-05T07:07:54.021Z,1.88
2023-03-05T07:08:57.692Z,1.89
2023-03-05T07:10:00.567Z,1.92
2023-03-05T07:11:03.363Z,1.91
2023-03-05T07:12:05.750Z,1.91
2023-03-05T07:13:09.095Z,1.92
2023-03-05T07:14:11.301Z,1.93
2023-03-05T07:15:13.473Z,1.91
2023-03-05T07:16:18.943Z,1.93
2023-03-05T07:17:21.517Z,1.94
2023-03-05T07:18:23.677Z,1.94
2023-03-05T07:19:25.810Z,1.93
2023-03-05T07:20:28.320Z,1.96
2023-03-05T07:21:36.885Z,1.96
2023-03-05T07:22:40.537Z,1.95
2023-03-05T07:23:42.731Z,1.96
2023-03-05T07:24:45.146Z,1.96
2023-03-05T07:25:47.308Z,1.96
2023-03-05T07:26:49.459Z,1.96
2023-03-05T07:27:51.972Z,1.97
2023-03-05T07:28:55.082Z,1.97
2023-03-05T07:29:57.205Z,1.98
2023-03-05T07:31:02.674Z,1.99
2023-03-05T07:32:05.382Z,1.97
2023-03-05T07:33:07.628Z,1.99
2023-03-05T07:34:10.268Z,2.00
2023-03-05T07:35:13.466Z,2.00
2023-03-05T07:36:16.733Z,2.05
2023-03-05T07:37:18.881Z,2.04
2023-03-05T07:38:21.028Z,2.04
2023-03-05T07:39:23.592Z,2.06
2023-03-05T07:40:25.770Z,2.06
2023-03-05T07:41:28.154Z,2.08
2023-03-05T07:42:31.710Z,2.09
2023-03-05T07:43:45.917Z,2.08
2023-03-05T07:44:48.196Z,2.10
2023-03-05T07:45:51.272Z,2.12
2023-03-05T07:46:53.533Z,2.14
2023-03-05T07:47:56.300Z,2.13
2023-03-05T07:48:59.086Z,2.14
2023-03-05T07:50:01.824Z,2.14
2023-03-05T07:51:06.252Z,2.15
2023-03-05T07:52:09.194Z,2.18
2023-03-05T07:53:11.653Z,2.18
2023-03-05T07:54:13.820Z,2.19
2023-03-05T07:55:17.226Z,2.19
2023-03-05T07:56:24.646Z,2.20
2023-03-05T07:57:26.837Z,2.22
2023-03-05T07:58:29.255Z,2.24
2023-03-05T07:59:33.510Z,2.25
2023-03-05T08:00:35.807Z,2.27
2023-03-05T08:01:38.463Z,2.28
2023-03-05T08:02:40.686Z,2.30
2023-03-05T08:03:44.589Z,2.31
2023-03-05T08:04:46.819Z,2.32
2023-03-05T08:05:49.542Z,2.32
2023-03-05T08:06:51.778Z,2.32
2023-03-05T08:07:53.961Z,2.33
2023-03-05T08:08:56.178Z,2.35
2023-03-05T08:09:59.658Z,2.36
2023-03-05T08:11:10.709Z,2.36
2023-03-05T08:12:13.032Z,2.35
2023-03-05T08:13:15.357Z,2.36
2023-03-05T08:14:17.601Z,2.37
2023-03-05T08:15:19.741Z,2.38
2023-03-05T08:16:22.338Z,2.37
2023-03-05T08:17:24.506Z,2.38
2023-03-05T08:18:26.792Z,2.38
2023-03-05T08:19:29.048Z,2.40
2023-03-05T08:20:31.259Z,2.41
2023-03-05T08:21:35.859Z,2.42
2023-03-05T08:22:38.867Z,2.46
2023-03-05T08:23:41.394Z,2.47
2023-03-05T08:24:43.666Z,2.50
2023-03-05T08:25:45.841Z,2.51
2023-03-05T08:26:50.497Z,2.55
2023-03-05T08:27:52.668Z,2.57
2023-03-05T08:28:55.270Z,2.62
2023-03-05T08:29:57.658Z,2.66
2023-03-05T08:30:59.858Z,2.71
2023-03-05T08:32:02.076Z,2.75
2023-03-05T08:33:04.348Z,2.80
2023-03-05T08:34:07.287Z,2.85
2023-03-05T08:35:11.974Z,2.90
2023-03-05T08:36:14.276Z,2.94
2023-03-05T08:37:16.416Z,3.00
2023-03-05T08:38:21.012Z,3.06
2023-03-05T08:39:24.632Z,3.11
2023-03-05T08:40:26.790Z,3.16
2023-03-05T08:41:29.619Z,3.21
2023-03-05T08:42:31.865Z,3.28
2023-03-05T08:43:34.610Z,3.36
2023-03-05T08:44:36.786Z,3.41
2023-03-05T08:45:40.076Z,3.47
2023-03-05T08:46:42.405Z,3.53
2023-03-05T08:47:44.610Z,3.61
2023-03-05T08:48:47.080Z,3.66
2023-03-05T08:49:49.252Z,3.73
2023-03-05T08:50:53.355Z,3.80
2023-03-05T08:51:55.670Z,3.87
2023-03-05T08:52:57.897Z,3.91
2023-03-05T08:54:00.453Z,3.97
2023-03-05T08:55:02.841Z,4.02
2023-03-05T08:56:05.863Z,4.07
2023-03-05T08:57:08.582Z,4.11
2023-03-05T08:58:10.798Z,4.16
2023-03-05T08:59:14.022Z,4.18
2023-03-05T09:00:16.619Z,4.19
2023-03-05T09:01:18.788Z,4.21
2023-03-05T09:02:21.098Z,4.22
2023-03-05T09:03:23.676Z,4.24
2023-03-05T09:04:26.012Z,4.25
2023-03-05T09:05:28.221Z,4.26
2023-03-05T09:06:30.536Z,4.28
2023-03-05T09:07:33.693Z,4.26
2023-03-05T09:08:36.809Z,4.28
2023-03-05T09:09:40.268Z,4.27
2023-03-05T09:10:47.484Z,4.28
2023-03-05T09:11:49.983Z,4.27
2023-03-05T09:12:52.261Z,4.28
2023-03-05T09:13:54.447Z,4.27
2023-03-05T09:14:57.003Z,4.25
2023-03-05T09:16:01.524Z,4.23
2023-03-05T09:17:03.963Z,4.21
2023-03-05T09:18:09.084Z,4.19
2023-03-05T09:19:15.235Z,4.17
2023-03-05T09:20:18.320Z,4.15
2023-03-05T09:21:22.543Z,4.13
2023-03-05T09:22:24.709Z,4.11
2023-03-05T09:23:26.882Z,4.09
2023-03-05T09:24:29.035Z,4.06
2023-03-05T09:25:31.295Z,4.05
2023-03-05T09:26:33.678Z,4.04
2023-03-05T09:27:36.649Z,4.01
2023-03-05T09:28:39.731Z,4.00
2023-03-05T09:29:43.223Z,3.97
2023-03-05T09:30:45.521Z,3.96
2023-03-05T09:31:51.917Z,3.95
2023-03-05T09:32:54.840Z,3.94
2023-03-05T09:33:57.048Z,3.91
2023-03-05T09:35:01.546Z,3.90
2023-03-05T09:36:05.012Z,3.89
2023-03-05T09:37:09.327Z,3.90
2023-03-05T09:38:11.541Z,3.87
2023-03-05T09:39:13.733Z,3.86
2023-03-05T09:40:19.434Z,3.87
2023-03-05T09:41:59.040Z,3.89
2023-03-05T09:43:30.509Z,3.90
2023-03-05T09:44:48.532Z,3.92
2023-03-05T09:45:59.979Z,3.95
2023-03-05T09:47:14.846Z,3.97
2023-03-05T09:48:22.906Z,4.01
2023-03-05T09:49:33.640Z,4.03
2023-03-05T09:50:43.627Z,4.05
2023-03-05T09:51:47.172Z,4.12
2023-03-05T09:52:57.269Z,4.13
2023-03-05T09:54:13.401Z,4.16
2023-03-05T09:55:29.594Z,4.21
2023-03-05T09:56:36.067Z,4.22
2023-03-05T09:57:51.543Z,4.26
2023-03-05T09:58:57.955Z,4.26
2023-03-05T10:00:08.720Z,4.30
2023-03-05T10:01:44.758Z,4.32
2023-03-05T10:03:00.953Z,4.34
2023-03-05T10:04:09.540Z,4.38
2023-03-05T10:05:20.272Z,4.40
2023-03-05T10:06:22.404Z,4.41
2023-03-05T10:07:38.648Z,4.46
2023-03-05T10:08:54.440Z,4.47
2023-03-05T10:10:14.368Z,4.49
2023-03-05T10:11:29.258Z,4.52
2023-03-05T10:12:52.779Z,4.55
2023-03-05T10:13:55.043Z,4.58
2023-03-05T10:15:00.727Z,4.60
2023-03-05T10:16:27.680Z,4.62
2023-03-05T10:17:57.612Z,4.64
2023-03-05T10:19:05.456Z,4.67
2023-03-05T10:20:27.710Z,4.68
2023-03-05T10:21:45.019Z,4.71
2023-03-05T10:22:50.217Z,4.73
2023-03-05T10:24:25.365Z,4.77
2023-03-05T10:26:05.642Z,4.82
2023-03-05T10:27:19.326Z,4.84
2023-03-05T10:28:34.782Z,4.90
2023-03-05T10:30:03.780Z,4.95
2023-03-05T10:31:21.705Z,4.99
2023-03-05T10:32:43.418Z,5.02
2023-03-05T10:34:00.631Z,5.09
2023-03-05T10:35:11.070Z,5.12
2023-03-05T10:36:27.497Z,5.15
2023-03-05T10:37:55.610Z,5.18
2023-03-05T10:39:51.803Z,5.23
2023-03-05T10:40:55.939Z,5.27
2023-03-05T10:42:18.511Z,5.30
2023-03-05T10:43:39.409Z,5.33
2023-03-05T10:44:45.270Z,5.35
2023-03-05T10:45:53.558Z,5.37
2023-03-05T10:46:58.739Z,5.39
2023-03-05T10:48:28.493Z,5.38
2023-03-05T10:49:36.827Z,5.39
2023-03-05T10:50:49.221Z,5.40
2023-03-05T10:52:05.536Z,5.41
2023-03-05T10:53:25.952Z,5.43
2023-03-05T10:54:30.890Z,5.44
2023-03-05T10:55:33.696Z,5.43
2023-03-05T10:56:38.389Z,5.42
2023-03-05T10:57:41.566Z,5.39
2023-03-05T10:58:43.785Z,5.38
2023-03-05T10:59:57.540Z,5.37
2023-03-05T11:01:22.141Z,5.36
2023-03-05T11:02:25.135Z,5.36
2023-03-05T11:03:47.113Z,5.34
2023-03-05T11:04:51.887Z,5.35
2023-03-05T11:06:02.403Z,5.33
2023-03-05T11:07:33.022Z,5.31
2023-03-05T11:08:36.360Z,5.32
2023-03-05T11:09:39.896Z,5.31
2023-03-05T11:10:42.093Z,5.30
2023-03-05T11:12:01.658Z,5.31
2023-03-05T11:13:27.566Z,5.29
2023-03-05T11:14:33.315Z,5.28
2023-03-05T11:15:36.763Z,5.28
2023-03-05T11:16:51.253Z,5.26
2023-03-05T11:18:16.659Z,5.26
2023-03-05T11:19:33.431Z,5.24
2023-03-05T11:20:37.149Z,5.25
2023-03-05T11:21:39.729Z,5.25
2023-03-05T11:22:43.095Z,5.24
2023-03-05T11:24:04.433Z,5.21
2023-03-05T11:25:20.145Z,5.21
2023-03-05T11:26:23.342Z,5.21
2023-03-05T11:27:38.573Z,5.21
2023-03-05T11:28:57.761Z,5.20
2023-03-05T11:30:00.164Z,5.20
2023-03-05T11:31:17.333Z,5.19
2023-03-05T11:32:28.545Z,5.18
2023-03-05T11:33:32.291Z,5.19
2023-03-05T11:34:36.071Z,5.20
2023-03-05T11:35:42.171Z,5.20
2023-03-05T11:36:53.418Z,5.21
2023-03-05T11:38:01.528Z,5.21
2023-03-05T11:39:25.299Z,5.23
2023-03-05T11:40:32.199Z,5.23
2023-03-05T11:41:37.199Z,5.25
2023-03-05T11:42:41.127Z,5.26
2023-03-05T11:43:44.075Z,5.26
2023-03-05T11:44:53.391Z,5.27
2023-03-05T11:46:03.340Z,5.30
2023-03-05T11:47:28.623Z,5.33
2023-03-05T11:48:36.296Z,5.33
2023-03-05T11:49:45.117Z,5.35
2023-03-05T11:50:52.825Z,5.37
2023-03-05T11:52:08.565Z,5.38
2023-03-05T11:53:20.710Z,5.39
2023-03-05T11:54:30.427Z,5.39
2023-03-05T11:55:45.112Z,5.41
2023-03-05T11:56:47.397Z,5.42
2023-03-05T11:58:11.669Z,5.42
2023-03-05T11:59:18.540Z,5.41
2023-03-05T12:00:32.570Z,5.41
2023-03-05T12:01:40.164Z,5.41
2023-03-05T12:02:43.177Z,5.39
2023-03-05T12:03:45.696Z,5.39
2023-03-05T12:04:49.844Z,5.39
2023-03-05T12:05:57.774Z,5.39
2023-03-05T12:07:02.831Z,5.39
2023-03-05T12:08:06.467Z,5.39
2023-03-05T12:09:16.305Z,5.38
2023-03-05T12:10:24.480Z,5.38
2023-03-05T12:11:30.602Z,5.37
2023-03-05T12:12:44.584Z,5.37
2023-03-05T12:14:36.248Z,5.38
2023-03-05T12:15:57.458Z,5.37
2023-03-05T12:17:14.120Z,5.35
2023-03-05T12:18:32.529Z,5.35
2023-03-05T12:19:48.289Z,5.34
2023-03-05T12:21:03.381Z,5.33
2023-03-05T12:22:16.775Z,5.32
2023-03-05T12:23:20.954Z,5.33
2023-03-05T12:24:28.175Z,5.30
2023-03-05T12:25:46.586Z,5.29
2023-03-05T12:27:03.785Z,5.29
2023-03-05T12:28:31.834Z,5.28
2023-03-05T12:29:52.480Z,5.27
2023-03-05T12:30:57.245Z,5.24
2023-03-05T12:32:23.146Z,5.23
2023-03-05T12:33:37.400Z,5.23
2023-03-05T12:34:43.039Z,5.21
2023-03-05T12:35:45.398Z,5.20
2023-03-05T12:36:48.233Z,5.20
2023-03-05T12:37:50.698Z,5.20
2023-03-05T12:38:54.597Z,5.19
2023-03-05T12:40:08.666Z,5.18
2023-03-05T12:41:24.958Z,5.18
2023-03-05T12:42:28.505Z,5.15
2023-03-05T12:43:33.281Z,5.14
2023-03-05T12:44:35.650Z,5.12
2023-03-05T12:45:41.300Z,5.12
2023-03-05T12:47:23.567Z,5.11
2023-03-05T12:48:26.215Z,5.07
2023-03-05T12:49:29.763Z,5.07
2023-03-05T12:50:33.481Z,5.05
2023-03-05T12:51:40.827Z,5.04
2023-03-05T12:52:46.262Z,5.01
2023-03-05T12:53:51.916Z,5.00
2023-03-05T12:55:17.198Z,4.98
2023-03-05T12:56:26.069Z,4.96
2023-03-05T12:57:30.090Z,4.97
2023-03-05T12:58:44.038Z,4.95
2023-03-05T12:59:53.633Z,4.94
2023-03-05T13:01:02.471Z,4.94
2023-03-05T13:02:20.797Z,4.93
2023-03-05T13:03:31.144Z,4.92
2023-03-05T13:04:37.117Z,4.89
2023-03-05T13:05:47.508Z,4.89
2023-03-05T13:07:00.728Z,4.91
2023-03-05T13:08:27.261Z,4.91
2023-03-05T13:09:33.656Z,4.92
2023-03-05T13:10:35.830Z,4.91
2023-03-05T13:11:39.395Z,4.90
2023-03-05T13:12:53.962Z,4.90
2023-03-05T13:13:57.645Z,4.91
2023-03-05T13:15:05.457Z,4.91
2023-03-05T13:16:18.612Z,4.91
2023-03-05T13:17:31.726Z,4.91
2023-03-05T13:18:34.649Z,4.91
2023-03-05T13:19:36.881Z,4.89
2023-03-05T13:20:42.706Z,4.90
2023-03-05T13:21:45.050Z,4.91
2023-03-05T13:22:47.262Z,4.91
2023-03-05T13:23:57.893Z,4.90
2023-03-05T13:25:26.695Z,4.91
2023-03-05T13:26:40.452Z,4.89
2023-03-05T13:27:43.617Z,4.89
2023-03-05T13:29:22.078Z,4.88
2023-03-05T13:30:28.479Z,4.86
2023-03-05T13:31:30.882Z,4.86
2023-03-05T13:32:33.675Z,4.86
2023-03-05T13:33:37.355Z,4.84
2023-03-05T13:34:48.137Z,4.84
2023-03-05T13:35:53.943Z,4.83
2023-03-05T13:37:00.510Z,4.82
2023-03-05T13:38:02.887Z,4.82
2023-03-05T13:39:06.812Z,4.81
2023-03-05T13:40:24.383Z,4.79
2023-03-05T13:41:28.290Z,4.78
2023-03-05T13:42:35.128Z,4.79
2023-03-05T13:43:52.760Z,4.77
2023-03-05T13:44:57.333Z,4.74
2023-03-05T13:45:59.886Z,4.74
2023-03-05T13:47:20.534Z,4.72
2023-03-05T13:48:22.841Z,4.71
2023-03-05T13:49:29.008Z,4.69
2023-03-05T13:50:39.944Z,4.68
2023-03-05T13:52:01.454Z,4.66
2023-03-05T13:53:22.787Z,4.65
2023-03-05T13:54:27.514Z,4.63
2023-03-05T13:55:29.779Z,4.62
2023-03-05T13:56:31.940Z,4.60
2023-03-05T13:57:45.535Z,4.60
2023-03-05T13:58:53.187Z,4.58
2023-03-05T13:59:55.353Z,4.55
2023-03-05T14:01:42.062Z,4.54
2023-03-05T14:02:44.434Z,4.53
2023-03-05T14:03:51.043Z,4.53
2023-03-05T14:04:53.375Z,4.50
2023-03-05T14:05:57.316Z,4.51
2023-03-05T14:07:03.679Z,4.51
2023-03-05T14:08:05.866Z,4.51
2023-03-05T14:09:37.513Z,4.49
2023-03-05T14:10:39.834Z,4.49
2023-03-05T14:11:43.150Z,4.46
2023-03-05T14:12:45.370Z,4.44
2023-03-05T14:13:48.984Z,4.41
2023-03-05T14:14:51.440Z,4.40
2023-03-05T14:16:04.133Z,4.37
2023-03-05T14:17:37.407Z,4.34
2023-03-05T14:18:52.745Z,4.32
2023-03-05T14:20:09.928Z,4.30
2023-03-05T14:21:13.217Z,4.27
2023-03-05T14:22:33.968Z,4.24
2023-03-05T14:23:43.369Z,4.21
2023-03-05T14:24:52.749Z,4.19
2023-03-05T14:26:17.969Z,4.16
2023-03-05T14:27:21.846Z,4.15
2023-03-05T14:28:29.229Z,4.13
2023-03-05T14:29:32.074Z,4.11
2023-03-05T14:30:36.415Z,4.10
2023-03-05T14:31:51.200Z,4.07
2023-03-05T14:32:56.061Z,4.07
2023-03-05T14:34:07.877Z,4.05
2023-03-05T14:35:18.727Z,4.03
2023-03-05T14:36:25.930Z,4.01
2023-03-05T14:37:37.157Z,3.98